createdAt,value
2023-08-08T00:01:33.591Z,14.31
2023-08-08T00:06:37.435Z,13.59
2023-08-08T00:11:41.746Z,13.22
2023-08-08T00:16:45.132Z,14.49
2023-08-08T00:21:48.924Z,14.53
2023-08-08T00:26:52.376Z,14.53
2023-08-08T00:31:55.711Z,13.30
2023-08-08T00:36:59.078Z,14.75
2023-08-08T00:42:02.566Z,14.44
2023-08-08T00:47:05.995Z,14.75
2023-08-08T00:52:09.831Z,14.21
2023-08-08T00:57:14.298Z,14.84
2023-08-08T01:02:17.785Z,14.31
2023-08-08T01:07:30.665Z,14.87
2023-08-08T01:12:34.645Z,14.75
2023-08-08T01:17:39.257Z,14.33
2023-08-08T01:22:51.838Z,14.89
2023-08-08T01:27:55.264Z,14.17
2023-08-08T01:32:58.815Z,13.25
2023-08-08T01:38:21.796Z,14.12
2023-08-08T01:43:26.502Z,13.93
2023-08-08T01:48:29.803Z,13.67
2023-08-08T01:53:33.502Z,12.42
2023-08-08T01:58:37.035Z,12.66
2023-08-08T02:03:40.818Z,13.24
2023-08-08T02:08:44.618Z,14.47
2023-08-08T02:13:48.509Z,14.68
2023-08-08T02:18:51.873Z,14.43
2023-08-08T02:23:55.227Z,14.10
2023-08-08T02:28:58.775Z,14.74
2023-08-08T02:34:02.226Z,14.86
2023-08-08T02:39:05.595Z,13.82
2023-08-08T02:44:09.195Z,14.10
2023-08-08T02:49:12.549Z,12.72
2023-08-08T02:54:15.905Z,14.84
2023-08-08T02:59:19.277Z,14.08
2023-08-08T03:04:22.750Z,13.84
2023-08-08T03:09:26.379Z,14.16
2023-08-08T03:14:29.765Z,13.03
2023-08-08T03:19:33.566Z,14.64
2023-08-08T03:24:37.119Z,15.00
2023-08-08T03:29:40.491Z,15.00
2023-08-08T03:34:44.009Z,14.76
2023-08-08T03:39:47.505Z,15.09
2023-08-08T03:44:50.891Z,14.65
2023-08-08T03:49:59.480Z,15.02
2023-08-08T03:55:03.319Z,14.96
2023-08-08T04:00:10.529Z,14.09
2023-08-08T04:05:14.247Z,14.32
2023-08-08T04:10:17.732Z,13.67
2023-08-08T04:15:21.442Z,14.07
2023-08-08T04:20:25.530Z,14.37
2023-08-08T04:25:29.461Z,13.92
2023-08-08T04:30:33.116Z,14.60
2023-08-08T04:35:36.578Z,14.24
2023-08-08T04:40:39.995Z,14.43
2023-08-08T04:45:43.378Z,15.01
2023-08-08T04:50:48.777Z,15.28
2023-08-08T04:55:52.193Z,14.17
2023-08-08T05:00:56.974Z,15.45
2023-08-08T05:06:01.028Z,13.44
2023-08-08T05:11:04.524Z,14.66
2023-08-08T05:16:08.328Z,15.15
2023-08-08T05:21:12.107Z,15.73
2023-08-08T05:26:16.904Z,14.22
2023-08-08T05:31:20.606Z,15.95
2023-08-08T05:36:24.353Z,15.63
2023-08-08T05:41:27.848Z,15.06
2023-08-08T05:46:31.251Z,15.01
2023-08-08T05:51:35.043Z,16.19
2023-08-08T05:56:39.469Z,16.34
2023-08-08T06:01:43.496Z,16.74
2023-08-08T06:06:47.021Z,16.41
2023-08-08T06:11:50.874Z,16.07
2023-08-08T06:16:54.476Z,16.25
2023-08-08T06:21:58.128Z,16.14
2023-08-08T06:27:01.765Z,16.66
2023-08-08T06:32:05.603Z,15.36
2023-08-08T06:37:09.701Z,16.81
2023-08-08T06:42:13.500Z,17.03
2023-08-08T06:47:17.249Z,17.68
2023-08-08T06:52:20.722Z,17.01
2023-08-08T06:57:24.350Z,17.38
2023-08-08T07:02:28.185Z,18.60
2023-08-08T07:07:32.892Z,18.15
2023-08-08T07:12:36.797Z,19.28
2023-08-08T07:17:40.537Z,19.92
2023-08-08T07:22:43.955Z,19.40
2023-08-08T07:27:47.644Z,20.04
2023-08-08T07:32:51.659Z,20.04
2023-08-08T07:37:55.670Z,20.33
2023-08-08T07:42:59.106Z,20.71
2023-08-08T07:48:02.664Z,20.20
2023-08-08T07:53:06.164Z,20.40
2023-08-08T07:58:09.738Z,21.27
2023-08-08T08:03:13.279Z,20.97
2023-08-08T08:08:16.686Z,21.35
2023-08-08T08:13:20.718Z,21.56
2023-08-08T08:18:24.153Z,20.95
2023-08-08T08:23:27.526Z,21.77
2023-08-08T08:28:30.904Z,21.60
2023-08-08T08:33:34.371Z,21.93
2023-08-08T08:38:37.689Z,22.24
2023-08-08T08:43:41.960Z,22.21
2023-08-08T08:48:46.470Z,22.61
2023-08-08T08:53:50.426Z,21.95
2023-08-08T08:58:53.790Z,22.58
2023-08-08T09:03:59.904Z,22.56
2023-08-08T09:09:16.202Z,20.65
2023-08-08T09:14:23.445Z,22.08
2023-08-08T09:19:27.157Z,24.48
2023-08-08T09:24:30.401Z,25.04
2023-08-08T09:29:35.471Z,23.81
2023-08-08T09:39:48.560Z,23.76
2023-08-08T09:44:52.618Z,23.59
2023-08-08T09:49:59.562Z,23.02
2023-08-08T09:55:03.364Z,23.60
2023-08-08T10:00:13.952Z,23.47
2023-08-08T10:05:18.587Z,24.48
2023-08-08T10:10:22.862Z,24.86
2023-08-08T10:24:59.771Z,24.72
2023-08-08T10:30:11.246Z,25.24
2023-08-08T10:35:14.909Z,25.37
2023-08-08T10:40:20.068Z,23.73
2023-08-08T10:50:25.681Z,24.24
2023-08-08T10:55:34.234Z,24.07
2023-08-08T11:00:41.478Z,23.95
2023-08-08T11:05:50.525Z,24.22
2023-08-08T11:10:56.491Z,23.29
2023-08-08T11:15:59.753Z,24.43
2023-08-08T11:21:12.755Z,23.37
2023-08-08T11:26:21.127Z,24.35
2023-08-08T11:31:24.555Z,24.47
2023-08-08T11:36:28.198Z,25.01
2023-08-08T11:41:32.126Z,23.51
2023-08-08T11:46:35.023Z,23.65
2023-08-08T11:51:37.847Z,24.32
2023-08-08T11:56:40.877Z,24.80
2023-08-08T12:01:44.698Z,24.46
2023-08-08T12:06:47.675Z,24.35
2023-08-08T12:11:52.656Z,24.35
2023-08-08T12:16:56.916Z,24.32
2023-08-08T12:21:59.535Z,23.98
2023-08-08T12:27:02.401Z,24.76
2023-08-08T12:32:09.569Z,25.14
2023-08-08T12:37:12.325Z,24.80
2023-08-08T12:42:15.041Z,24.89
2023-08-08T12:47:18.213Z,24.36
2023-08-08T12:52:20.933Z,24.53
2023-08-08T12:57:23.812Z,24.35
2023-08-08T13:02:26.684Z,23.45
2023-08-08T13:07:29.577Z,24.16
2023-08-08T13:12:32.832Z,24.39
2023-08-08T13:17:37.132Z,24.81
2023-08-08T13:22:40.462Z,23.68
2023-08-08T13:27:44.480Z,24.17
2023-08-08T13:32:47.277Z,23.93
2023-08-08T13:37:53.256Z,23.78
2023-08-08T13:42:56.041Z,23.76
2023-08-08T13:48:00.938Z,23.97
2023-08-08T13:53:04.323Z,23.74
2023-08-08T13:58:09.360Z,23.79
2023-08-08T14:03:13.782Z,23.90
2023-08-08T14:08:17.871Z,23.95
2023-08-08T14:13:21.132Z,23.84
2023-08-08T14:18:24.022Z,23.66
2023-08-08T14:23:27.105Z,23.41
2023-08-08T14:28:30.081Z,23.51
2023-08-08T14:33:33.101Z,23.08
2023-08-08T14:38:38.786Z,23.58
2023-08-08T14:43:41.564Z,24.15
2023-08-08T14:48:44.655Z,23.62
2023-08-08T14:53:48.510Z,23.81
2023-08-08T14:58:51.357Z,24.52
2023-08-08T15:03:55.412Z,24.42
2023-08-08T15:08:58.085Z,22.70
2023-08-08T15:14:01.057Z,23.37
2023-08-08T15:19:04.908Z,23.66
2023-08-08T15:24:08.365Z,23.82
2023-08-08T15:29:10.988Z,24.07
2023-08-08T15:34:13.821Z,23.43
2023-08-08T15:39:17.562Z,22.23
2023-08-08T15:44:20.454Z,23.47
2023-08-08T15:49:23.419Z,22.57
2023-08-08T15:54:26.274Z,23.81
2023-08-08T15:59:29.666Z,23.36
2023-08-08T16:04:33.263Z,23.15
2023-08-08T16:09:36.547Z,22.91
2023-08-08T16:14:39.209Z,22.38
2023-08-08T16:19:43.033Z,21.83
2023-08-08T16:24:45.914Z,21.35
2023-08-08T16:29:48.738Z,21.67
2023-08-08T16:34:51.476Z,21.64
2023-08-08T16:39:56.958Z,22.23
2023-08-08T16:44:59.896Z,22.72
2023-08-08T16:50:04.578Z,21.77
2023-08-08T16:55:07.895Z,22.36
2023-08-08T17:00:12.000Z,22.52
2023-08-08T17:05:15.498Z,22.71
2023-08-08T17:10:19.204Z,22.49
2023-08-08T17:15:22.019Z,22.63
2023-08-08T17:20:25.542Z,23.13
2023-08-08T17:25:28.265Z,22.61
2023-08-08T17:30:31.543Z,22.44
2023-08-08T17:35:35.762Z,22.08
2023-08-08T17:40:38.634Z,21.91
2023-08-08T17:45:41.523Z,21.70
2023-08-08T17:50:44.225Z,21.59
2023-08-08T17:55:48.979Z,21.77
2023-08-08T18:00:51.641Z,21.63
2023-08-08T18:05:54.460Z,21.31
2023-08-08T18:10:57.098Z,20.41
2023-08-08T18:16:02.864Z,19.94
2023-08-08T18:21:05.665Z,19.41
2023-08-08T18:26:08.725Z,19.22
2023-08-08T18:31:11.715Z,18.83
2023-08-08T18:36:15.346Z,18.58
2023-08-08T18:41:18.122Z,17.86
2023-08-08T18:46:21.396Z,18.22
2023-08-08T18:51:24.498Z,17.79
2023-08-08T18:56:28.124Z,17.76
2023-08-08T19:08:23.939Z,16.99
2023-08-08T19:13:27.063Z,16.78
2023-08-08T19:18:29.817Z,16.03
2023-08-08T19:23:34.173Z,16.63
2023-08-08T19:28:37.064Z,15.13
2023-08-08T19:33:43.447Z,16.73
2023-08-08T19:38:51.597Z,15.51
2023-08-08T19:43:54.310Z,15.93
2023-08-08T19:48:57.330Z,16.18
2023-08-08T19:53:59.976Z,14.81
2023-08-08T19:59:03.616Z,16.17
2023-08-08T20:04:06.497Z,16.52
2023-08-08T20:09:09.304Z,16.40
2023-08-08T20:14:12.157Z,15.46
2023-08-08T20:19:14.897Z,15.83
2023-08-08T20:24:17.548Z,14.84
2023-08-08T20:29:20.206Z,16.18
2023-08-08T20:34:23.034Z,15.82
2023-08-08T20:39:26.770Z,15.89
2023-08-08T20:44:29.555Z,16.01
2023-08-08T20:49:32.433Z,14.92
2023-08-08T20:54:35.115Z,15.52
2023-08-08T20:59:38.040Z,14.10
2023-08-08T21:04:41.898Z,16.14
2023-08-08T21:09:45.350Z,16.29
2023-08-08T21:14:48.091Z,15.10
2023-08-08T21:19:54.285Z,14.62
2023-08-08T21:24:57.274Z,15.45
2023-08-08T21:29:59.970Z,15.44
2023-08-08T21:35:02.912Z,14.78
2023-08-08T21:40:06.887Z,15.32
2023-08-08T21:45:10.126Z,15.10
2023-08-08T21:50:12.731Z,13.86
2023-08-08T21:55:15.315Z,14.20
2023-08-08T22:00:19.637Z,15.01
2023-08-08T22:05:22.409Z,14.37
2023-08-08T22:10:25.200Z,14.73
2023-08-08T22:15:28.815Z,14.98
2023-08-08T22:20:31.740Z,14.17
2023-08-08T22:25:34.477Z,14.86
2023-08-08T22:30:37.215Z,15.21
2023-08-08T22:35:39.835Z,14.76
2023-08-08T22:40:42.425Z,14.45
2023-08-08T22:45:45.221Z,15.37
2023-08-08T22:50:48.376Z,14.64
2023-08-08T22:55:51.288Z,14.84
2023-08-08T23:00:54.283Z,14.21
2023-08-08T23:05:57.016Z,14.35
2023-08-08T23:11:00.940Z,12.90
2023-08-08T23:16:04.319Z,14.67
2023-08-08T23:21:07.216Z,14.09
2023-08-08T23:26:10.430Z,13.87
2023-08-08T23:31:13.144Z,14.41
2023-08-08T23:36:16.390Z,13.84
2023-08-08T23:41:21.660Z,13.72
2023-08-08T23:46:24.642Z,14.48
2023-08-08T23:51:27.288Z,13.35
2023-08-08T23:56:29.936Z,14.27
